Time;durP1;ratioP1;P1;durP2;ratioP2;P2;SDS_P1;SDS_P2;PMS_P1;PMS_P2;Temp;Humidity;BMP_temperature;BMP_pressure;BME280_temperature;BME280_humidity;BME280_pressure;Samples;Min_cycle;Max_cycle;Signal;HPM_P1;HPM_P2
2022/03/22 00:01:44;;;;;;;6.90;6.18;;;5.70;44.40;;;;;;640774;224;26503;-68
2022/03/22 00:04:11;;;;;;;7.30;6.60;;;5.70;44.40;;;;;;640528;224;26550;-67
2022/03/22 00:06:39;;;;;;;6.85;6.15;;;5.70;44.40;;;;;;638396;225;26774;-69
2022/03/22 00:09:06;;;;;;;7.10;6.40;;;5.60;44.50;;;;;;640361;224;26548;-71
2022/03/22 00:11:33;;;;;;;6.72;6.05;;;5.60;44.60;;;;;;640399;224;27202;-69
2022/03/22 00:14:00;;;;;;;6.87;6.28;;;5.60;44.50;;;;;;638352;225;26555;-68
2022/03/22 00:16:27;;;;;;;7.43;6.35;;;5.50;44.60;;;;;;640354;224;26555;-67
2022/03/22 00:18:55;;;;;;;5.97;5.45;;;5.50;44.60;;;;;;640369;224;26531;-68
2022/03/22 00:21:23;;;;;;;6.47;5.87;;;5.50;44.60;;;;;;638285;225;26593;-67
2022/03/22 00:23:50;;;;;;;7.22;6.32;;;5.50;44.50;;;;;;640086;225;26521;-68
2022/03/22 00:26:17;;;;;;;6.60;6.00;;;5.60;44.50;;;;;;640199;225;26764;-68
2022/03/22 00:28:45;;;;;;;7.15;6.10;;;5.60;44.60;;;;;;638117;225;26472;-68
2022/03/22 00:31:11;;;;;;;6.35;5.75;;;5.50;44.50;;;;;;640114;225;26765;-69
2022/03/22 00:33:39;;;;;;;6.47;5.87;;;5.50;44.70;;;;;;640141;225;26513;-67
2022/03/22 00:36:07;;;;;;;6.50;5.87;;;5.40;44.70;;;;;;640005;224;26544;-68
2022/03/22 00:38:35;;;;;;;6.20;5.60;;;5.40;44.70;;;;;;638065;225;26477;-67
2022/03/22 00:41:02;;;;;;;8.10;6.82;;;5.50;44.70;;;;;;638116;225;26477;-69
2022/03/22 00:43:30;;;;;;;6.82;6.12;;;5.40;44.90;;;;;;638070;225;26505;-69
2022/03/22 00:45:58;;;;;;;6.28;5.68;;;5.40;44.80;;;;;;640081;224;26532;-68
2022/03/22 00:48:25;;;;;;;6.60;5.90;;;5.40;44.80;;;;;;640028;225;27196;-69
2022/03/22 00:50:53;;;;;;;6.50;5.90;;;5.40;44.80;;;;;;638082;225;26493;-68
2022/03/22 00:53:20;;;;;;;6.40;5.80;;;5.40;45.00;;;;;;638064;225;27194;-69
2022/03/22 00:55:47;;;;;;;6.05;5.53;;;5.40;44.90;;;;;;638030;225;26524;-68
2022/03/22 00:58:14;;;;;;;6.28;5.68;;;5.40;45.00;;;;;;639514;223;26556;-69
2022/03/22 01:00:42;;;;;;;6.93;6.22;;;5.40;45.10;;;;;;639425;224;26519;-67
2022/03/22 01:03:10;;;;;;;6.15;5.55;;;5.30;45.40;;;;;;638985;224;26586;-68
2022/03/22 01:05:37;;;;;;;6.00;5.40;;;5.30;45.50;;;;;;638951;225;27232;-68
2022/03/22 01:08:05;;;;;;;6.30;5.70;;;5.20;45.20;;;;;;640729;224;26519;-68
2022/03/22 01:10:32;;;;;;;6.28;5.65;;;5.20;45.40;;;;;;638982;225;26485;-69
2022/03/22 01:13:00;;;;;;;7.10;6.40;;;5.10;45.80;;;;;;641030;224;26754;-68
2022/03/22 01:15:32;;;;;;;5.65;5.15;;;5.10;45.80;;;;;;640560;224;26825;-68
2022/03/22 01:17:55;;;;;;;6.28;5.35;;;5.10;45.70;;;;;;637971;225;26560;-68
2022/03/22 01:20:22;;;;;;;6.37;5.78;;;5.20;45.70;;;;;;638366;225;26702;-69
2022/03/22 01:22:50;;;;;;;6.30;5.72;;;5.20;45.80;;;;;;638648;225;26544;-69
2022/03/22 01:25:18;;;;;;;6.03;5.43;;;5.10;45.90;;;;;;640500;224;26557;-69
2022/03/22 01:27:46;;;;;;;7.87;6.00;;;5.10;45.80;;;;;;640414;224;26788;-68
2022/03/22 01:30:13;;;;;;;7.30;5.90;;;5.00;45.90;;;;;;638402;225;26549;-68
2022/03/22 01:32:40;;;;;;;6.22;5.62;;;5.10;46.40;;;;;;640351;224;26571;-70
2022/03/22 01:35:09;;;;;;;6.37;5.70;;;5.00;46.00;;;;;;640013;225;26779;-69
2022/03/22 01:37:35;;;;;;;5.70;5.07;;;5.00;46.10;;;;;;638065;225;27122;-68
2022/03/22 01:40:04;;;;;;;6.05;5.53;;;5.00;46.10;;;;;;638084;225;26505;-67
2022/03/22 01:42:31;;;;;;;6.45;5.70;;;5.00;46.10;;;;;;638092;225;26500;-69
2022/03/22 01:44:58;;;;;;;6.28;5.35;;;5.00;46.00;;;;;;637995;225;27207;-69
2022/03/22 01:47:26;;;;;;;5.97;5.37;;;4.80;46.00;;;;;;638040;225;26493;-68
2022/03/22 01:49:54;;;;;;;6.40;5.80;;;4.80;46.20;;;;;;638024;225;26505;-69
2022/03/22 01:52:21;;;;;;;6.72;5.95;;;4.80;46.20;;;;;;638059;225;26513;-68
2022/03/22 01:54:49;;;;;;;6.93;6.32;;;4.80;46.30;;;;;;638033;225;26528;-69
2022/03/22 01:57:18;;;;;;;5.75;5.15;;;4.70;46.40;;;;;;638052;225;26513;-67
2022/03/22 01:59:46;;;;;;;7.07;5.87;;;4.60;46.40;;;;;;640025;225;26516;-69
2022/03/22 02:07:19;;;;;;;6.22;5.18;;;4.60;46.60;;;;;;638093;225;26524;-68
2022/03/22 02:09:46;;;;;;;5.68;5.18;;;4.60;47.20;;;;;;639454;223;26775;-69
2022/03/22 02:12:14;;;;;;;5.95;5.35;;;4.50;46.80;;;;;;639352;225;26496;-69
2022/03/22 02:14:42;;;;;;;5.65;5.15;;;4.60;46.90;;;;;;639023;225;26588;-70
2022/03/22 02:17:09;;;;;;;6.65;5.95;;;4.50;46.80;;;;;;638943;224;26727;-68
2022/03/22 02:19:37;;;;;;;5.97;5.07;;;4.50;46.80;;;;;;640707;224;26496;-69
2022/03/22 02:22:04;;;;;;;6.00;5.50;;;4.50;47.00;;;;;;638728;224;27161;-69
2022/03/22 02:24:31;;;;;;;6.00;5.40;;;4.40;47.00;;;;;;638533;225;26777;-68
2022/03/22 02:26:59;;;;;;;5.55;5.05;;;4.40;47.20;;;;;;640561;224;26536;-69
2022/03/22 02:29:28;;;;;;;14.18;5.93;;;4.40;47.20;;;;;;640410;224;26547;-69
2022/03/22 02:31:55;;;;;;;6.97;5.68;;;4.40;47.20;;;;;;638289;225;26560;-69
2022/03/22 02:34:23;;;;;;;6.20;5.55;;;4.40;47.20;;;;;;638345;225;26850;-69
2022/03/22 02:36:50;;;;;;;6.00;5.50;;;4.30;47.50;;;;;;640374;224;26583;-69
2022/03/22 02:39:17;;;;;;;6.12;5.57;;;4.30;47.30;;;;;;640446;224;26778;-69
2022/03/22 02:41:45;;;;;;;6.18;5.57;;;4.30;47.30;;;;;;638331;225;26569;-69
2022/03/22 02:44:11;;;;;;;6.43;5.82;;;4.30;47.40;;;;;;640335;224;26550;-69
2022/03/22 02:46:39;;;;;;;6.65;5.65;;;4.20;47.30;;;;;;640091;225;26484;-68
2022/03/22 02:49:08;;;;;;;5.62;5.15;;;4.10;47.70;;;;;;638086;225;26496;-67
2022/03/22 02:51:34;;;;;;;6.20;5.60;;;4.10;47.70;;;;;;640355;225;26723;-68
2022/03/22 02:54:02;;;;;;;5.68;5.15;;;4.20;47.60;;;;;;638454;225;26474;-70
2022/03/22 02:56:30;;;;;;;6.30;5.30;;;4.20;47.60;;;;;;638450;225;26731;-70
2022/03/22 02:58:57;;;;;;;5.82;5.32;;;4.10;47.80;;;;;;638364;225;26479;-69
2022/03/22 03:01:24;;;;;;;5.68;5.18;;;4.20;47.70;;;;;;638456;225;26472;-69
2022/03/22 03:03:52;;;;;;;5.78;5.28;;;4.10;47.70;;;;;;638405;225;26480;-69
2022/03/22 03:06:19;;;;;;;5.62;5.12;;;4.10;47.70;;;;;;638034;225;26545;-67
2022/03/22 03:08:46;;;;;;;5.87;5.37;;;4.10;47.80;;;;;;638039;225;26501;-69
2022/03/22 03:11:13;;;;;;;5.47;5.07;;;4.10;47.70;;;;;;638072;225;26762;-70
2022/03/22 03:16:14;;;;;;;5.90;5.35;;;4.10;48.10;;;;;;638037;225;26519;-68
2022/03/22 03:18:41;;;;;;;6.60;6.00;;;4.10;47.70;;;;;;638054;225;26528;-68
2022/03/22 03:21:09;;;;;;;6.07;5.40;;;4.10;47.60;;;;;;639409;223;26555;-68
2022/03/22 03:23:36;;;;;;;6.07;5.47;;;4.00;47.60;;;;;;639482;225;26749;-70
2022/03/22 03:26:03;;;;;;;5.82;5.32;;;4.00;47.70;;;;;;639082;224;26585;-69
2022/03/22 03:28:30;;;;;;;6.15;5.60;;;4.00;47.90;;;;;;641106;224;26512;-69
2022/03/22 03:30:58;;;;;;;5.87;5.37;;;4.00;47.80;;;;;;640745;224;26515;-69
2022/03/22 03:33:26;;;;;;;5.43;4.93;;;4.10;47.90;;;;;;640727;224;26534;-69
2022/03/22 03:35:54;;;;;;;5.30;4.82;;;4.00;47.80;;;;;;638682;224;26529;-68
2022/03/22 03:38:22;;;;;;;5.85;5.35;;;4.00;48.00;;;;;;638579;224;26766;-69
2022/03/22 03:43:22;;;;;;;6.00;5.50;;;3.90;48.10;;;;;;638380;225;26906;-68
2022/03/22 03:48:22;;;;;;;5.85;5.35;;;3.90;48.70;;;;;;638351;225;26578;-71
2022/03/22 03:50:50;;;;;;;6.50;5.37;;;3.80;48.60;;;;;;638335;225;26554;-67
2022/03/22 03:53:17;;;;;;;5.75;5.25;;;3.80;48.60;;;;;;636052;225;26830;-67
2022/03/22 03:55:44;;;;;;;5.57;5.07;;;3.80;48.40;;;;;;638340;225;26580;-68
2022/03/22 03:58:12;;;;;;;5.85;5.28;;;3.80;48.50;;;;;;638062;225;26748;-68
2022/03/22 04:00:39;;;;;;;6.03;5.40;;;3.70;48.50;;;;;;638055;225;26508;-68
2022/03/22 04:03:06;;;;;;;5.82;5.32;;;3.70;48.50;;;;;;638059;225;26778;-70
2022/03/22 04:05:34;;;;;;;5.62;4.75;;;3.70;48.60;;;;;;640067;225;26541;-69
2022/03/22 04:08:01;;;;;;;6.37;5.78;;;3.70;48.60;;;;;;640109;225;26505;-69
2022/03/22 04:10:28;;;;;;;5.85;5.35;;;3.70;48.50;;;;;;638113;225;26497;-68
2022/03/22 04:12:55;;;;;;;5.97;5.40;;;3.70;48.50;;;;;;640060;225;26770;-68
2022/03/22 04:15:23;;;;;;;5.70;5.20;;;3.70;48.70;;;;;;640074;224;26524;-68
2022/03/22 04:17:50;;;;;;;6.00;5.45;;;3.60;48.60;;;;;;638011;225;26508;-68
2022/03/22 04:20:21;;;;;;;7.15;5.82;;;3.60;48.60;;;;;;640112;224;26497;-68
2022/03/22 04:22:46;;;;;;;5.28;4.87;;;3.60;48.60;;;;;;640436;225;26481;-68
2022/03/22 04:25:13;;;;;;;6.15;5.57;;;3.60;48.60;;;;;;638182;225;26531;-68
2022/03/22 04:32:47;;;;;;;6.32;5.72;;;3.60;48.50;;;;;;641413;222;27049;-68
2022/03/22 04:35:17;;;;;;;5.75;5.25;;;3.60;48.60;;;;;;639444;224;26531;-68
2022/03/22 04:37:43;;;;;;;5.80;5.30;;;3.60;48.60;;;;;;641014;224;26693;-69
2022/03/22 04:40:10;;;;;;;5.68;5.18;;;3.60;48.60;;;;;;641046;224;26765;-69
2022/03/22 04:42:38;;;;;;;6.22;5.60;;;3.50;48.80;;;;;;638653;224;26512;-68
2022/03/22 04:45:06;;;;;;;6.35;5.35;;;3.60;48.70;;;;;;638680;224;26543;-68
2022/03/22 04:47:35;;;;;;;5.97;5.37;;;3.60;48.80;;;;;;638709;225;26556;-67
2022/03/22 04:50:02;;;;;;;5.85;5.35;;;3.50;48.70;;;;;;638578;225;26526;-67
2022/03/22 04:57:48;;;;;;;6.30;5.70;;;3.50;49.00;;;;;;640339;224;26570;-69
2022/03/22 05:00:15;;;;;;;5.37;4.87;;;3.50;49.00;;;;;;638357;225;26857;-69
2022/03/22 05:02:43;;;;;;;5.65;5.15;;;3.50;49.20;;;;;;640479;224;26564;-68
2022/03/22 05:05:10;;;;;;;6.00;5.50;;;3.50;49.10;;;;;;640462;224;26571;-68
2022/03/22 05:07:38;;;;;;;5.75;5.25;;;3.40;49.20;;;;;;638419;225;26563;-67
2022/03/22 05:10:05;;;;;;;6.60;5.90;;;3.40;49.20;;;;;;638123;225;26504;-69
2022/03/22 05:12:34;;;;;;;6.50;5.28;;;3.40;49.40;;;;;;638111;225;26509;-68
2022/03/22 05:15:00;;;;;;;6.22;5.62;;;3.40;49.40;;;;;;637919;225;26852;-68
2022/03/22 05:17:27;;;;;;;6.18;5.65;;;3.30;49.50;;;;;;638044;225;26509;-68
2022/03/22 05:19:54;;;;;;;5.78;5.28;;;3.30;49.50;;;;;;638113;225;26497;-68
2022/03/22 05:22:22;;;;;;;6.05;5.40;;;3.30;49.70;;;;;;640139;224;26514;-68
2022/03/22 05:24:52;;;;;;;6.20;5.60;;;3.20;49.70;;;;;;640093;224;26509;-68
2022/03/22 05:27:18;;;;;;;6.50;5.90;;;3.20;49.80;;;;;;637900;225;26508;-68
2022/03/22 05:29:44;;;;;;;6.03;5.53;;;3.20;49.80;;;;;;640149;225;26496;-68
2022/03/22 05:32:12;;;;;;;5.85;5.35;;;3.20;50.10;;;;;;640102;225;26507;-69
2022/03/22 05:34:40;;;;;;;5.43;5.00;;;3.10;50.10;;;;;;640027;225;26781;-69
2022/03/22 05:37:07;;;;;;;5.90;5.32;;;3.20;50.40;;;;;;638071;225;26501;-68
2022/03/22 05:39:35;;;;;;;6.00;5.40;;;3.20;50.10;;;;;;638089;225;26745;-69
2022/03/22 05:42:01;;;;;;;6.43;5.82;;;3.30;50.00;;;;;;638056;225;26504;-68
2022/03/22 05:44:28;;;;;;;6.05;5.45;;;3.30;50.00;;;;;;639408;223;26574;-69
2022/03/22 05:46:57;;;;;;;6.35;5.70;;;3.20;50.10;;;;;;639457;224;26504;-61
2022/03/22 05:49:24;;;;;;;5.57;5.07;;;3.20;50.10;;;;;;639330;225;26533;-62
2022/03/22 05:51:51;;;;;;;6.53;5.75;;;3.20;50.10;;;;;;641426;224;26471;-62
2022/03/22 05:54:18;;;;;;;6.20;5.60;;;3.30;50.10;;;;;;641080;224;26721;-61
2022/03/22 05:56:45;;;;;;;6.07;5.55;;;3.30;50.00;;;;;;639075;224;26489;-61
2022/03/22 05:59:13;;;;;;;7.07;5.05;;;3.40;50.20;;;;;;641105;224;26496;-61
2022/03/22 06:01:44;;;;;;;5.95;5.40;;;3.40;49.90;;;;;;641042;224;26478;-62
2022/03/22 06:04:07;;;;;;;7.32;5.80;;;3.50;49.80;;;;;;638407;225;26813;-64
2022/03/22 06:06:35;;;;;;;6.60;6.00;;;3.50;49.70;;;;;;640438;224;26547;-62
2022/03/22 06:09:01;;;;;;;6.53;5.30;;;3.60;49.70;;;;;;640432;224;26776;-62
2022/03/22 06:11:34;;;;;;;8.90;5.45;;;3.60;49.50;;;;;;640399;224;26577;-61
2022/03/22 06:13:57;;;;;;;8.65;5.95;;;3.70;49.40;;;;;;638001;225;26583;-60
2022/03/22 06:16:25;;;;;;;6.40;5.80;;;3.70;49.40;;;;;;640379;224;26545;-61
2022/03/22 06:18:52;;;;;;;6.25;5.65;;;3.70;49.20;;;;;;640336;224;26552;-62
2022/03/22 06:21:19;;;;;;;6.82;6.22;;;3.70;49.30;;;;;;638125;225;26711;-62
2022/03/22 06:23:47;;;;;;;8.25;6.80;;;3.80;49.50;;;;;;639624;224;26500;-62
2022/03/22 06:26:13;;;;;;;7.85;7.00;;;3.90;49.30;;;;;;636327;225;26864;-63
2022/03/22 06:28:42;;;;;;;7.10;6.40;;;4.10;48.80;;;;;;636793;225;26520;-64
2022/03/22 06:31:09;;;;;;;10.35;7.10;;;4.10;48.80;;;;;;643040;221;26490;-63
2022/03/22 06:33:37;;;;;;;7.53;6.20;;;4.20;49.20;;;;;;633382;225;26546;-63
2022/03/22 06:36:08;;;;;;;10.23;6.55;;;4.20;48.80;;;;;;630132;225;26810;-63
2022/03/22 06:38:33;;;;;;;8.02;7.22;;;4.40;48.60;;;;;;630684;225;26546;-62
2022/03/22 06:41:01;;;;;;;9.52;6.82;;;4.30;48.50;;;;;;619518;230;26556;-63
2022/03/22 06:43:28;;;;;;;9.18;6.97;;;4.40;48.60;;;;;;619014;230;26982;-62
2022/03/22 06:45:55;;;;;;;9.18;7.37;;;4.50;48.40;;;;;;643053;221;26523;-62
2022/03/22 06:48:22;;;;;;;8.48;6.68;;;4.60;48.20;;;;;;633063;225;26475;-62
2022/03/22 06:50:51;;;;;;;8.02;7.22;;;4.70;48.30;;;;;;619096;230;26861;-61
2022/03/22 06:53:18;;;;;;;9.63;7.37;;;4.80;48.20;;;;;;631136;225;26466;-62
2022/03/22 06:55:45;;;;;;;8.38;7.35;;;4.90;48.40;;;;;;649883;219;26818;-62
2022/03/22 06:58:14;;;;;;;9.57;7.30;;;4.90;47.70;;;;;;646603;221;26524;-62
2022/03/22 07:00:40;;;;;;;8.52;7.37;;;5.10;47.50;;;;;;642805;221;26567;-62
2022/03/22 07:03:07;;;;;;;10.57;7.95;;;5.10;47.50;;;;;;630556;225;26822;-62
2022/03/22 07:05:34;;;;;;;11.15;7.93;;;5.20;47.50;;;;;;634755;226;26601;-61
2022/03/22 07:08:01;;;;;;;8.32;7.40;;;5.30;47.40;;;;;;626765;228;27252;-62
2022/03/22 07:10:31;;;;;;;9.30;7.32;;;5.50;47.10;;;;;;644578;221;26555;-61
2022/03/22 07:12:56;;;;;;;8.02;7.20;;;6.00;46.70;;;;;;638653;225;26465;-62
2022/03/22 07:15:29;;;;;;;8.63;7.72;;;5.90;46.10;;;;;;638361;225;26570;-63
2022/03/22 07:17:58;;;;;;;9.80;8.15;;;5.90;46.10;;;;;;639608;224;26528;-63
2022/03/22 07:20:24;;;;;;;10.00;8.45;;;5.90;46.10;;;;;;633106;225;26529;-62
2022/03/22 07:22:51;;;;;;;11.23;8.30;;;5.90;46.30;;;;;;631067;227;26466;-62
2022/03/22 07:25:20;;;;;;;9.75;8.75;;;5.90;46.40;;;;;;620658;230;26914;-61
2022/03/22 07:27:47;;;;;;;9.88;8.25;;;5.90;46.40;;;;;;617077;231;26884;-63
2022/03/22 07:30:14;;;;;;;9.13;7.95;;;6.00;46.30;;;;;;632453;227;26425;-61
2022/03/22 07:32:42;;;;;;;10.93;8.20;;;6.00;46.20;;;;;;634739;225;26737;-62
2022/03/22 07:35:09;;;;;;;10.35;8.23;;;6.10;46.00;;;;;;628162;225;26612;-61
2022/03/22 07:37:36;;;;;;;9.95;8.38;;;6.20;45.90;;;;;;631962;225;26575;-61
2022/03/22 07:40:07;;;;;;;11.88;9.40;;;6.30;45.70;;;;;;649796;221;26724;-61
2022/03/22 07:42:34;;;;;;;9.48;8.38;;;6.30;45.60;;;;;;620728;230;26610;-62
2022/03/22 07:45:02;;;;;;;10.00;7.80;;;6.30;45.50;;;;;;615740;232;26865;-61
2022/03/22 07:47:29;;;;;;;9.63;8.15;;;6.40;45.60;;;;;;647892;221;26549;-63
2022/03/22 07:55:02;;;;;;;10.20;8.35;;;6.70;45.30;;;;;;630505;225;26616;-62
2022/03/22 07:57:29;;;;;;;12.18;8.30;;;6.80;45.30;;;;;;632952;226;26727;-62
2022/03/22 07:59:56;;;;;;;10.35;9.20;;;6.80;45.00;;;;;;636740;225;26460;-62
2022/03/22 08:02:23;;;;;;;10.93;8.40;;;6.90;44.80;;;;;;618123;232;26846;-62
2022/03/22 08:04:53;;;;;;;10.55;8.20;;;7.10;44.70;;;;;;630496;227;26588;-62
2022/03/22 08:07:19;;;;;;;9.20;8.00;;;7.10;44.70;;;;;;633740;225;26730;-61
2022/03/22 08:09:46;;;;;;;8.85;7.95;;;7.20;44.20;;;;;;617325;231;26489;-61
2022/03/22 08:12:13;;;;;;;9.32;8.15;;;7.30;43.80;;;;;;635468;225;27155;-61
2022/03/22 08:14:41;;;;;;;9.80;7.65;;;7.40;43.20;;;;;;644856;221;26614;-62
2022/03/22 08:17:08;;;;;;;9.98;8.10;;;7.50;42.80;;;;;;638714;225;26509;-61
2022/03/22 08:19:36;;;;;;;10.07;8.85;;;7.70;42.10;;;;;;648389;221;26555;-62
2022/03/22 08:22:05;;;;;;;9.10;7.72;;;7.80;42.30;;;;;;638759;221;26510;-63
2022/03/22 08:24:32;;;;;;;9.13;8.23;;;7.90;41.40;;;;;;645421;221;26558;-62
2022/03/22 08:27:00;;;;;;;9.00;8.07;;;8.00;41.60;;;;;;640522;221;26566;-61
2022/03/22 08:29:27;;;;;;;9.55;8.20;;;8.00;41.60;;;;;;632064;227;26736;-62
2022/03/22 08:31:54;;;;;;;11.55;8.05;;;8.10;41.50;;;;;;623158;226;26521;-62
2022/03/22 08:34:22;;;;;;;10.18;8.43;;;8.20;41.80;;;;;;633901;225;26818;-62
2022/03/22 08:36:50;;;;;;;8.95;8.02;;;8.40;40.60;;;;;;619126;231;26482;-62
2022/03/22 08:39:17;;;;;;;9.32;7.72;;;8.40;40.60;;;;;;628571;227;26803;-62
2022/03/22 08:41:45;;;;;;;8.90;7.93;;;8.50;40.50;;;;;;627466;226;26595;-62
2022/03/22 08:44:13;;;;;;;10.35;7.55;;;8.70;40.30;;;;;;623542;226;26515;-63
2022/03/22 08:46:41;;;;;;;11.63;7.20;;;8.80;40.40;;;;;;649783;221;26620;-61
2022/03/22 08:49:09;;;;;;;10.30;7.72;;;8.90;39.90;;;;;;629945;225;26532;-61
2022/03/22 08:51:37;;;;;;;10.68;7.25;;;8.90;40.60;;;;;;634249;226;26529;-62
2022/03/22 08:54:06;;;;;;;9.88;7.35;;;8.90;40.50;;;;;;622760;230;26572;-61
2022/03/22 08:56:33;;;;;;;12.27;7.93;;;9.00;40.10;;;;;;640308;223;26596;-62
2022/03/22 08:59:00;;;;;;;41.35;13.02;;;9.10;40.10;;;;;;646127;221;26743;-59
2022/03/22 09:01:27;;;;;;;87.95;23.27;;;9.20;39.50;;;;;;640197;221;26504;-60
2022/03/22 09:06:28;;;;;;;190.05;41.97;;;9.50;38.20;;;;;;645230;223;26941;-60
2022/03/22 09:08:55;;;;;;;104.82;33.00;;;9.50;37.80;;;;;;640635;223;26482;-60
2022/03/22 09:11:22;;;;;;;92.93;28.27;;;9.60;37.90;;;;;;647732;221;26761;-61
2022/03/22 09:13:54;;;;;;;98.43;29.65;;;9.70;37.90;;;;;;645194;222;26525;-62
2022/03/22 09:16:17;;;;;;;86.15;25.83;;;9.90;36.60;;;;;;642014;223;26527;-62
2022/03/22 09:18:46;;;;;;;99.32;29.73;;;10.10;35.40;;;;;;639092;223;26557;-62
2022/03/22 09:21:13;;;;;;;84.68;26.37;;;10.10;35.60;;;;;;640624;221;26511;-62
2022/03/22 09:23:41;;;;;;;71.97;23.87;;;10.20;35.60;;;;;;642672;221;26506;-61
2022/03/22 09:26:09;;;;;;;71.35;23.58;;;10.10;35.50;;;;;;635176;225;26783;-61
2022/03/22 09:28:37;;;;;;;64.35;23.40;;;10.20;35.10;;;;;;630696;227;26528;-62
2022/03/22 09:31:04;;;;;;;63.70;22.50;;;10.20;35.30;;;;;;617912;231;26788;-61
2022/03/22 09:33:30;;;;;;;49.10;20.33;;;10.30;36.00;;;;;;633703;226;26567;-60
2022/03/22 09:35:58;;;;;;;38.28;15.95;;;10.40;36.10;;;;;;637245;224;26507;-61
2022/03/22 09:38:27;;;;;;;14.90;8.60;;;10.40;35.50;;;;;;632945;227;26474;-61
2022/03/22 09:40:54;;;;;;;11.57;7.32;;;10.60;35.80;;;;;;629404;227;26513;-63
2022/03/22 09:43:23;;;;;;;10.68;8.48;;;11.30;35.10;;;;;;615359;230;26629;-62
2022/03/22 09:45:51;;;;;;;9.70;6.90;;;11.60;34.80;;;;;;647828;221;26493;-61
2022/03/22 09:48:19;;;;;;;9.25;6.97;;;11.50;34.50;;;;;;638398;225;26519;-62
2022/03/22 09:53:20;;;;;;;9.35;6.87;;;11.30;34.60;;;;;;638383;225;26542;-61
2022/03/22 09:55:47;;;;;;;7.62;6.70;;;11.30;34.20;;;;;;650492;221;26908;-61
2022/03/22 09:58:14;;;;;;;13.20;7.00;;;11.20;33.80;;;;;;633900;225;26553;-61
2022/03/22 10:00:41;;;;;;;9.00;6.47;;;11.20;34.30;;;;;;620814;230;26877;-60
2022/03/22 10:03:09;;;;;;;8.77;6.60;;;11.20;34.00;;;;;;641250;221;26476;-60
2022/03/22 10:05:36;;;;;;;7.70;6.32;;;11.20;33.90;;;;;;647678;221;26552;-61
2022/03/22 10:08:05;;;;;;;10.23;6.43;;;11.30;34.20;;;;;;638029;225;26488;-60
2022/03/22 10:10:32;;;;;;;21.35;6.80;;;11.30;34.60;;;;;;637786;225;26510;-61
2022/03/22 10:13:00;;;;;;;10.90;6.47;;;11.30;34.40;;;;;;627084;229;26794;-61
2022/03/22 10:15:30;;;;;;;7.75;6.53;;;11.40;34.10;;;;;;622643;231;26578;-61
2022/03/22 10:18:05;;;;;;;11.40;6.55;;;11.40;33.90;;;;;;627257;227;26592;-61
2022/03/22 10:20:32;;;;;;;7.07;6.18;;;11.50;33.20;;;;;;622701;231;27185;-61
2022/03/22 10:23:00;;;;;;;11.12;5.97;;;11.50;33.10;;;;;;627595;227;26517;-62
2022/03/22 10:25:30;;;;;;;8.43;6.05;;;11.50;33.00;;;;;;622794;231;26877;-61
2022/03/22 10:27:56;;;;;;;9.02;6.30;;;11.50;33.10;;;;;;627203;229;26526;-60
2022/03/22 10:30:23;;;;;;;9.75;6.37;;;11.50;33.10;;;;;;616249;231;26617;-61
2022/03/22 10:32:52;;;;;;;8.45;6.32;;;11.60;32.90;;;;;;628623;229;26541;-59
2022/03/22 10:35:34;;;;;;;8.60;5.72;;;11.60;32.20;;;;;;616122;233;26575;-62
2022/03/22 10:38:02;;;;;;;8.75;5.80;;;11.60;32.40;;;;;;628146;229;26520;-60
2022/03/22 10:40:34;;;;;;;9.00;6.20;;;11.70;32.60;;;;;;623295;231;26822;-61
2022/03/22 10:43:03;;;;;;;9.43;5.72;;;11.80;32.50;;;;;;623296;231;26562;-61
2022/03/22 10:45:30;;;;;;;7.55;5.60;;;11.90;32.30;;;;;;627805;227;26568;-61
2022/03/22 10:47:58;;;;;;;14.02;5.65;;;12.00;31.90;;;;;;623174;231;26790;-61
2022/03/22 10:50:25;;;;;;;7.95;5.50;;;12.00;31.50;;;;;;627494;227;26591;-61
2022/03/22 10:52:52;;;;;;;6.65;5.62;;;12.10;31.70;;;;;;623035;231;27150;-61
2022/03/22 10:55:21;;;;;;;5.82;5.20;;;12.20;31.30;;;;;;622929;231;26629;-62
2022/03/22 10:57:50;;;;;;;7.07;5.60;;;12.20;31.30;;;;;;627449;229;26581;-63
2022/03/22 11:00:18;;;;;;;6.00;5.25;;;12.20;31.30;;;;;;627515;229;26634;-61
2022/03/22 11:02:45;;;;;;;7.82;5.25;;;12.20;31.50;;;;;;623143;231;26611;-61
2022/03/22 11:05:13;;;;;;;6.15;5.53;;;12.40;31.30;;;;;;622897;231;26650;-62
2022/03/22 11:07:40;;;;;;;7.15;5.95;;;12.40;31.30;;;;;;622753;229;26776;-61
2022/03/22 11:10:07;;;;;;;6.05;5.43;;;12.50;30.70;;;;;;622723;231;26566;-61
2022/03/22 11:12:35;;;;;;;6.90;5.12;;;12.60;30.60;;;;;;627271;229;26530;-61
2022/03/22 11:15:03;;;;;;;5.62;5.12;;;12.60;30.20;;;;;;627215;229;26570;-61
2022/03/22 11:17:34;;;;;;;7.62;6.03;;;12.60;30.20;;;;;;622730;231;26556;-61
2022/03/22 11:19:59;;;;;;;7.00;6.00;;;12.70;30.20;;;;;;626929;229;26545;-62
2022/03/22 11:22:25;;;;;;;6.12;5.57;;;12.70;30.00;;;;;;622681;231;26859;-61
2022/03/22 11:24:52;;;;;;;6.85;5.60;;;12.80;30.10;;;;;;627225;229;26569;-61
2022/03/22 11:27:20;;;;;;;5.90;5.40;;;12.90;30.00;;;;;;622738;231;26812;-61
2022/03/22 11:29:46;;;;;;;6.18;5.57;;;12.90;30.10;;;;;;626582;229;26578;-63
2022/03/22 11:34:46;;;;;;;6.75;5.37;;;13.00;29.60;;;;;;622745;229;26594;-61
2022/03/22 11:37:14;;;;;;;6.57;5.85;;;13.20;29.50;;;;;;627208;227;26534;-61
2022/03/22 11:42:15;;;;;;;6.03;5.43;;;13.30;29.20;;;;;;616072;231;26648;-62
2022/03/22 11:44:42;;;;;;;6.45;5.80;;;13.30;29.50;;;;;;628500;229;26787;-62
2022/03/22 11:47:11;;;;;;;7.55;5.37;;;13.40;29.10;;;;;;616120;233;26614;-60
2022/03/22 11:49:47;;;;;;;5.72;5.15;;;13.50;29.90;;;;;;627964;229;26536;-63
2022/03/22 11:52:14;;;;;;;5.35;4.85;;;13.40;29.50;;;;;;615783;233;26604;-64
2022/03/22 11:54:42;;;;;;;5.45;4.95;;;13.60;29.30;;;;;;616386;233;26845;-63
2022/03/22 11:57:09;;;;;;;5.95;5.40;;;13.60;29.30;;;;;;627774;229;26799;-64
2022/03/22 11:59:40;;;;;;;5.45;4.80;;;13.60;29.10;;;;;;623189;231;26562;-63
2022/03/22 12:02:16;;;;;;;5.28;4.75;;;13.80;29.00;;;;;;616082;231;26554;-64
2022/03/22 12:04:43;;;;;;;6.40;5.03;;;13.80;29.00;;;;;;627536;229;26605;-64
2022/03/22 12:07:10;;;;;;;5.15;4.65;;;13.90;29.10;;;;;;627259;229;26797;-64
2022/03/22 12:09:40;;;;;;;5.53;5.00;;;13.90;29.20;;;;;;622908;231;26590;-64
2022/03/22 12:12:09;;;;;;;5.37;4.87;;;14.00;28.80;;;;;;623053;229;26613;-64
2022/03/22 12:14:35;;;;;;;5.45;4.95;;;14.00;28.70;;;;;;615472;232;26580;-64
2022/03/22 12:17:03;;;;;;;6.55;5.20;;;14.00;28.40;;;;;;615953;233;26801;-64
2022/03/22 12:19:31;;;;;;;6.00;5.50;;;14.20;28.60;;;;;;627251;229;26531;-64
2022/03/22 12:22:00;;;;;;;6.05;5.32;;;14.30;28.60;;;;;;615167;234;26604;-65
2022/03/22 12:24:30;;;;;;;6.07;5.47;;;14.30;28.30;;;;;;627162;229;26658;-64
2022/03/22 12:26:54;;;;;;;6.43;5.82;;;14.40;28.50;;;;;;622460;231;26554;-64
2022/03/22 12:29:22;;;;;;;6.50;5.90;;;14.30;28.40;;;;;;627181;226;26564;-64
2022/03/22 12:31:49;;;;;;;5.32;4.93;;;14.40;28.50;;;;;;615229;234;26653;-63
2022/03/22 12:34:16;;;;;;;5.85;5.20;;;14.40;28.70;;;;;;627241;229;26766;-63
2022/03/22 12:36:44;;;;;;;5.80;5.25;;;14.50;29.00;;;;;;615203;234;26608;-64
2022/03/22 12:39:11;;;;;;;5.97;5.47;;;14.60;28.70;;;;;;615798;232;26901;-63
2022/03/22 12:41:38;;;;;;;5.72;5.18;;;14.50;28.60;;;;;;627223;229;27200;-64
2022/03/22 12:44:06;;;;;;;6.15;5.57;;;14.60;28.20;;;;;;615178;234;26604;-64
2022/03/22 12:46:33;;;;;;;6.07;5.53;;;14.60;28.30;;;;;;627270;229;26868;-64
2022/03/22 12:49:01;;;;;;;5.90;5.40;;;14.70;27.80;;;;;;615250;234;26624;-64
2022/03/22 12:51:31;;;;;;;5.50;5.00;;;14.70;27.60;;;;;;627236;229;27300;-63
2022/03/22 12:53:57;;;;;;;6.25;5.65;;;14.80;27.50;;;;;;623957;228;26612;-64
2022/03/22 12:56:25;;;;;;;5.55;5.05;;;14.90;27.20;;;;;;628509;228;26552;-63
2022/03/22 12:58:56;;;;;;;5.75;5.25;;;15.00;27.10;;;;;;628214;229;26608;-64
2022/03/22 13:01:21;;;;;;;5.90;5.40;;;14.90;27.10;;;;;;623454;231;26552;-65
2022/03/22 13:03:47;;;;;;;5.70;5.20;;;15.00;27.00;;;;;;616151;233;26592;-63
2022/03/22 13:06:14;;;;;;;5.50;5.00;;;15.00;27.10;;;;;;628277;229;26817;-64
2022/03/22 13:11:31;;;;;;;5.07;4.68;;;15.10;26.50;;;;;;623646;231;26576;-64
2022/03/22 13:16:34;;;;;;;5.25;4.80;;;15.30;25.90;;;;;;616093;230;26565;-64
2022/03/22 13:19:00;;;;;;;5.40;4.93;;;15.30;25.60;;;;;;650012;221;26495;-64
2022/03/22 13:21:30;;;;;;;5.97;5.37;;;15.50;25.30;;;;;;638046;225;26695;-63
2022/03/22 13:24:03;;;;;;;5.28;4.78;;;15.40;25.30;;;;;;649938;221;26804;-64
2022/03/22 13:26:32;;;;;;;5.05;4.30;;;15.60;24.40;;;;;;637746;225;26475;-64
2022/03/22 13:29:05;;;;;;;4.53;4.12;;;15.70;24.50;;;;;;650025;221;26524;-64
2022/03/22 13:31:32;;;;;;;5.05;4.55;;;15.70;24.50;;;;;;625872;230;26956;-63
2022/03/22 13:34:00;;;;;;;4.68;4.20;;;15.60;25.30;;;;;;649777;221;26562;-64
2022/03/22 13:36:27;;;;;;;4.93;4.45;;;15.60;25.30;;;;;;637824;225;26509;-63